Airfield :
LOGIN :

Register | Disclaimer

   EN    FR    IT 

 










Legend :    VFR   Marginal VFR   IFR   Intensive IFR   Very Intensive IFR
Visi :
Ceiling :
>= 8 km
>= 3000ft
5 to 8 km
1000 to 3000 ft
1500m to 5 km
500 to 1000 ft
800 to 1500m
200 to 500 ft
< 800m
< 200 ft
Symbols :   Thunderstorms  Fog  Heavy snow  Heavy precipitations  Wind > 20 kt
SIGMETs :     Misc.  Thunderstorms  Icing  Turbulence  Mountain Waves  Volcanic Ashes






- Airport Elevation : 11 ft
- IATA code : MJV


LELC - Murcia San Javier

CURRENT METAR :
  • 202000Z AUTO 35004KT 290V020 9000 FEW008 SCT044 20/20 Q1010

EXPIRED METARs :
  • 201930Z AUTO 04006KT 010V070 8000 SCT005 BKN042 20/20 Q1010
  • 201900Z AUTO 02005KT 350V050 9000 OVC006 20/20 Q1011
  • 201830Z AUTO 04006KT 360V070 8000 FEW005 20/20 Q1011
  • 201800Z AUTO 05006KT 8000 NCD 20/20 Q1011
  • 201730Z AUTO 04004KT 9000 NCD 20/19 Q1011

TAF TAF LELC
Valid from the 20 at 18:00 until the 21 at 18:00 UTC


201700Z 2018/2118 07010KT 9999 FEW020 TX26/2114Z TN13/2106Z
PROB40
TEMPO 2018/2106 3000 BR BKN006
PROB30
TEMPO 2021/2103 0500 FG VV001
BECMG 2020/2022 VRB04KT
BECMG 2107/2110 20014KT
PROB30
TEMPO 2112/2116 21015G25KT



MET'MAP, your aeronautical weather chart ! - Copyright ORBIFLY December 2007 - Disclaimer

ORBIFLY MET'MAP TEAM :

Programming & Development : Alexandra Zaïnal
Concept & original design : Baudouin d'Aumeries
Assistance for programming : Marc-Olivier Méhu
Technical & hardware support : Manuel Goepfert

Contact : metmap@orbifly.com




SOURCES & CREDITS :

   NOAA